sensor_id;sensor_type;location;lat;lon;timestamp;temperature;humidity
20315;DHT22;10315;50.958;13.080;2024-01-10T00:08:24;-11.30;99.90
20315;DHT22;10315;50.958;13.080;2024-01-10T00:18:28;-11.30;99.90
20315;DHT22;10315;50.958;13.080;2024-01-10T00:28:29;-11.40;99.90
20315;DHT22;10315;50.958;13.080;2024-01-10T00:38:36;-11.40;99.90
20315;DHT22;10315;50.958;13.080;2024-01-10T00:48:37;-11.20;99.90
20315;DHT22;10315;50.958;13.080;2024-01-10T00:58:40;-11.30;99.90
20315;DHT22;10315;50.958;13.080;2024-01-10T01:08:42;-11.30;99.90
20315;DHT22;10315;50.958;13.080;2024-01-10T01:18:45;-11.70;99.90
20315;DHT22;10315;50.958;13.080;2024-01-10T01:28:46;-11.80;99.90
20315;DHT22;10315;50.958;13.080;2024-01-10T01:38:49;-11.90;99.90
20315;DHT22;10315;50.958;13.080;2024-01-10T01:48:51;-12.00;99.90
20315;DHT22;10315;50.958;13.080;2024-01-10T02:08:56;-11.90;99.90
20315;DHT22;10315;50.958;13.080;2024-01-10T02:18:58;-12.00;99.90
20315;DHT22;10315;50.958;13.080;2024-01-10T02:29:02;-12.10;99.90
20315;DHT22;10315;50.958;13.080;2024-01-10T02:39:03;-12.10;99.90
20315;DHT22;10315;50.958;13.080;2024-01-10T02:49:06;-12.10;99.90
20315;DHT22;10315;50.958;13.080;2024-01-10T02:59:08;-11.70;99.90
20315;DHT22;10315;50.958;13.080;2024-01-10T03:09:11;-11.80;99.90
20315;DHT22;10315;50.958;13.080;2024-01-10T03:19:12;-12.00;99.90
20315;DHT22;10315;50.958;13.080;2024-01-10T03:29:15;-11.90;99.90
20315;DHT22;10315;50.958;13.080;2024-01-10T03:39:16;-12.10;99.90
20315;DHT22;10315;50.958;13.080;2024-01-10T03:49:19;-12.20;99.90
20315;DHT22;10315;50.958;13.080;2024-01-10T03:59:21;-12.30;99.90
20315;DHT22;10315;50.958;13.080;2024-01-10T04:09:23;-12.20;99.90
20315;DHT22;10315;50.958;13.080;2024-01-10T04:19:25;-12.00;99.90
20315;DHT22;10315;50.958;13.080;2024-01-10T04:29:28;-12.00;99.90
20315;DHT22;10315;50.958;13.080;2024-01-10T04:39:29;-11.60;99.90
20315;DHT22;10315;50.958;13.080;2024-01-10T04:49:32;-10.80;99.90
20315;DHT22;10315;50.958;13.080;2024-01-10T04:59:33;-10.80;99.90
20315;DHT22;10315;50.958;13.080;2024-01-10T05:19:38;-9.10;99.90
20315;DHT22;10315;50.958;13.080;2024-01-10T05:29:40;-10.20;99.90
20315;DHT22;10315;50.958;13.080;2024-01-10T05:39:42;-10.40;99.90
20315;DHT22;10315;50.958;13.080;2024-01-10T05:49:44;-10.70;99.90
20315;DHT22;10315;50.958;13.080;2024-01-10T05:59:47;-10.90;99.90
20315;DHT22;10315;50.958;13.080;2024-01-10T06:09:48;-10.80;99.90
20315;DHT22;10315;50.958;13.080;2024-01-10T06:19:51;-10.70;99.90
20315;DHT22;10315;50.958;13.080;2024-01-10T06:29:52;-11.10;99.90
20315;DHT22;10315;50.958;13.080;2024-01-10T06:39:55;-11.20;99.90
20315;DHT22;10315;50.958;13.080;2024-01-10T06:49:57;-11.30;99.90
20315;DHT22;10315;50.958;13.080;2024-01-10T06:59:59;-11.40;99.90
20315;DHT22;10315;50.958;13.080;2024-01-10T07:10:04;-11.50;99.90
20315;DHT22;10315;50.958;13.080;2024-01-10T07:20:08;-11.60;99.90
20315;DHT22;10315;50.958;13.080;2024-01-10T07:30:12;-11.30;99.90
20315;DHT22;10315;50.958;13.080;2024-01-10T07:40:15;-11.40;99.90
20315;DHT22;10315;50.958;13.080;2024-01-10T07:50:17;-10.60;99.90
20315;DHT22;10315;50.958;13.080;2024-01-10T08:00:21;-10.10;99.90
20315;DHT22;10315;50.958;13.080;2024-01-10T08:10:26;-9.80;99.90
20315;DHT22;10315;50.958;13.080;2024-01-10T08:20:29;-8.90;99.90
20315;DHT22;10315;50.958;13.080;2024-01-10T08:30:31;-7.80;99.90
20315;DHT22;10315;50.958;13.080;2024-01-10T08:40:34;-7.20;99.90
20315;DHT22;10315;50.958;13.080;2024-01-10T08:50:36;-6.40;99.90
20315;DHT22;10315;50.958;13.080;2024-01-10T09:00:38;-5.70;99.90
20315;DHT22;10315;50.958;13.080;2024-01-10T09:10:40;-5.20;99.90
20315;DHT22;10315;50.958;13.080;2024-01-10T09:20:43;-4.60;99.90
20315;DHT22;10315;50.958;13.080;2024-01-10T09:30:44;-4.00;99.90
20315;DHT22;10315;50.958;13.080;2024-01-10T09:40:47;-3.40;99.90
20315;DHT22;10315;50.958;13.080;2024-01-10T09:50:48;-3.00;99.90
20315;DHT22;10315;50.958;13.080;2024-01-10T10:00:52;-2.60;99.90
20315;DHT22;10315;50.958;13.080;2024-01-10T10:10:54;-2.00;99.90
20315;DHT22;10315;50.958;13.080;2024-01-10T10:21:09;-1.50;99.90
20315;DHT22;10315;50.958;13.080;2024-01-10T10:31:12;-1.20;99.90
20315;DHT22;10315;50.958;13.080;2024-01-10T10:41:15;-0.60;99.90
20315;DHT22;10315;50.958;13.080;2024-01-10T10:51:17;-0.20;99.90
20315;DHT22;10315;50.958;13.080;2024-01-10T11:01:21;0.10;99.90
20315;DHT22;10315;50.958;13.080;2024-01-10T11:11:26;0.60;99.90
20315;DHT22;10315;50.958;13.080;2024-01-10T11:21:35;0.50;99.90
20315;DHT22;10315;50.958;13.080;2024-01-10T11:31:38;1.20;99.90
20315;DHT22;10315;50.958;13.080;2024-01-10T11:41:41;1.70;99.90
20315;DHT22;10315;50.958;13.080;2024-01-10T11:51:43;2.00;99.90
20315;DHT22;10315;50.958;13.080;2024-01-10T12:01:46;1.90;99.90
20315;DHT22;10315;50.958;13.080;2024-01-10T12:11:48;2.00;99.90
20315;DHT22;10315;50.958;13.080;2024-01-10T12:21:51;2.30;99.90
20315;DHT22;10315;50.958;13.080;2024-01-10T12:31:52;2.40;99.90
20315;DHT22;10315;50.958;13.080;2024-01-10T12:41:56;2.50;99.90
20315;DHT22;10315;50.958;13.080;2024-01-10T12:51:58;2.40;99.90
20315;DHT22;10315;50.958;13.080;2024-01-10T13:02:01;2.30;99.90
20315;DHT22;10315;50.958;13.080;2024-01-10T13:12:03;2.10;99.90
20315;DHT22;10315;50.958;13.080;2024-01-10T13:22:06;2.10;99.90
20315;DHT22;10315;50.958;13.080;2024-01-10T13:32:08;2.10;99.90
20315;DHT22;10315;50.958;13.080;2024-01-10T13:42:12;1.90;99.90
20315;DHT22;10315;50.958;13.080;2024-01-10T13:52:14;1.80;99.90
20315;DHT22;10315;50.958;13.080;2024-01-10T14:02:17;1.70;99.90
20315;DHT22;10315;50.958;13.080;2024-01-10T14:12:19;1.50;99.90
20315;DHT22;10315;50.958;13.080;2024-01-10T14:22:24;1.10;99.90
20315;DHT22;10315;50.958;13.080;2024-01-10T14:32:25;0.50;99.90
20315;DHT22;10315;50.958;13.080;2024-01-10T14:42:28;0.40;99.90
20315;DHT22;10315;50.958;13.080;2024-01-10T14:52:30;0.10;99.90
20315;DHT22;10315;50.958;13.080;2024-01-10T15:02:33;-0.50;99.90
20315;DHT22;10315;50.958;13.080;2024-01-10T15:12:35;-0.80;99.90
20315;DHT22;10315;50.958;13.080;2024-01-10T15:22:37;-1.20;99.90
20315;DHT22;10315;50.958;13.080;2024-01-10T15:32:39;-1.80;99.90
20315;DHT22;10315;50.958;13.080;2024-01-10T15:42:42;-2.30;99.90
20315;DHT22;10315;50.958;13.080;2024-01-10T15:52:44;-2.70;99.90
20315;DHT22;10315;50.958;13.080;2024-01-10T16:02:50;-3.00;99.90
20315;DHT22;10315;50.958;13.080;2024-01-10T16:12:52;-3.00;99.90
20315;DHT22;10315;50.958;13.080;2024-01-10T16:22:55;-2.80;99.90
20315;DHT22;10315;50.958;13.080;2024-01-10T16:32:56;-2.90;99.90
20315;DHT22;10315;50.958;13.080;2024-01-10T16:42:59;-3.40;99.90
20315;DHT22;10315;50.958;13.080;2024-01-10T16:53:00;-4.00;99.90
20315;DHT22;10315;50.958;13.080;2024-01-10T17:03:04;-4.00;99.90
20315;DHT22;10315;50.958;13.080;2024-01-10T17:13:06;-4.10;99.90
20315;DHT22;10315;50.958;13.080;2024-01-10T17:23:09;-4.20;99.90
20315;DHT22;10315;50.958;13.080;2024-01-10T17:33:11;-4.60;99.90
20315;DHT22;10315;50.958;13.080;2024-01-10T17:43:14;-4.80;99.90
20315;DHT22;10315;50.958;13.080;2024-01-10T17:53:16;-4.80;99.90
20315;DHT22;10315;50.958;13.080;2024-01-10T18:03:18;-5.80;99.90
20315;DHT22;10315;50.958;13.080;2024-01-10T18:13:20;-5.60;99.90
20315;DHT22;10315;50.958;13.080;2024-01-10T18:23:23;-5.60;99.90
20315;DHT22;10315;50.958;13.080;2024-01-10T18:33:24;-4.50;99.90
20315;DHT22;10315;50.958;13.080;2024-01-10T18:43:27;-4.40;99.90
20315;DHT22;10315;50.958;13.080;2024-01-10T18:53:29;-5.00;99.90
20315;DHT22;10315;50.958;13.080;2024-01-10T19:03:33;-5.30;99.90
20315;DHT22;10315;50.958;13.080;2024-01-10T19:13:34;-5.00;99.90
20315;DHT22;10315;50.958;13.080;2024-01-10T19:23:41;-5.30;99.90
20315;DHT22;10315;50.958;13.080;2024-01-10T19:33:45;-5.30;99.90
20315;DHT22;10315;50.958;13.080;2024-01-10T19:43:49;-4.90;99.90
20315;DHT22;10315;50.958;13.080;2024-01-10T19:53:51;-4.70;99.90
20315;DHT22;10315;50.958;13.080;2024-01-10T20:03:53;-4.60;99.90
20315;DHT22;10315;50.958;13.080;2024-01-10T20:13:55;-4.60;99.90
20315;DHT22;10315;50.958;13.080;2024-01-10T20:23:58;-4.40;99.90
20315;DHT22;10315;50.958;13.080;2024-01-10T20:33:59;-4.30;99.90
20315;DHT22;10315;50.958;13.080;2024-01-10T20:44:02;-4.70;99.90
20315;DHT22;10315;50.958;13.080;2024-01-10T20:54:04;-4.70;99.90
20315;DHT22;10315;50.958;13.080;2024-01-10T21:04:07;-4.90;99.90
20315;DHT22;10315;50.958;13.080;2024-01-10T21:14:10;-5.00;99.90
20315;DHT22;10315;50.958;13.080;2024-01-10T21:24:13;-5.20;99.90
20315;DHT22;10315;50.958;13.080;2024-01-10T21:34:17;-5.00;99.90
20315;DHT22;10315;50.958;13.080;2024-01-10T21:44:20;-5.10;99.90
20315;DHT22;10315;50.958;13.080;2024-01-10T22:04:56;-5.60;99.90
20315;DHT22;10315;50.958;13.080;2024-01-10T22:14:58;-5.50;99.90
20315;DHT22;10315;50.958;13.080;2024-01-10T22:25:01;-6.10;99.90
20315;DHT22;10315;50.958;13.080;2024-01-10T22:35:03;-6.50;99.90
20315;DHT22;10315;50.958;13.080;2024-01-10T22:45:06;-6.10;99.90
20315;DHT22;10315;50.958;13.080;2024-01-10T22:55:08;-6.50;99.90
20315;DHT22;10315;50.958;13.080;2024-01-10T23:05:10;-6.20;99.90
20315;DHT22;10315;50.958;13.080;2024-01-10T23:15:12;-6.10;99.90
20315;DHT22;10315;50.958;13.080;2024-01-10T23:25:15;-6.00;99.90
20315;DHT22;10315;50.958;13.080;2024-01-10T23:35:16;-6.30;99.90
20315;DHT22;10315;50.958;13.080;2024-01-10T23:45:19;-6.30;99.90
20315;DHT22;10315;50.958;13.080;2024-01-10T23:55:20;-6.70;99.90
